createdAt,value
2022-09-15T00:24:04.135Z,3.97
2022-09-15T00:36:49.553Z,4.30
2022-09-15T00:45:20.094Z,6.38
2022-09-15T00:49:28.543Z,4.05
2022-09-15T01:06:49.842Z,3.88
2022-09-15T01:19:49.237Z,5.82
2022-09-15T01:33:26.469Z,7.38
2022-09-15T01:42:00.291Z,5.80
2022-09-15T01:46:09.376Z,6.40
2022-09-15T01:59:06.337Z,6.43
2022-09-15T02:17:37.708Z,7.43
2022-09-15T02:22:24.622Z,8.23
2022-09-15T02:30:51.245Z,5.75
2022-09-15T02:34:58.217Z,5.45
2022-09-15T02:43:13.467Z,7.03
2022-09-15T02:47:16.626Z,15.48
2022-09-15T02:51:20.138Z,13.55
2022-09-15T02:55:24.974Z,11.82
2022-09-15T02:59:50.275Z,15.67
2022-09-15T03:03:53.529Z,15.13
2022-09-15T03:08:00.829Z,17.08
2022-09-15T03:12:06.027Z,18.52
2022-09-15T03:16:15.319Z,19.27
2022-09-15T03:20:23.095Z,18.20
2022-09-15T03:24:29.152Z,16.95
2022-09-15T03:28:32.553Z,15.23
2022-09-15T03:32:36.206Z,20.02
2022-09-15T03:36:39.174Z,19.13
2022-09-15T03:40:47.409Z,14.32
2022-09-15T03:44:50.364Z,15.95
2022-09-15T03:48:53.455Z,20.17
2022-09-15T03:52:58.825Z,20.98
2022-09-15T03:57:03.466Z,13.82
2022-09-15T04:01:06.552Z,8.27
2022-09-15T04:05:11.179Z,10.82
2022-09-15T04:09:16.447Z,7.13
2022-09-15T04:17:38.651Z,10.45
2022-09-15T04:21:41.619Z,6.55
2022-09-15T04:25:46.425Z,6.20
2022-09-15T04:29:55.836Z,6.90
2022-09-15T04:33:59.713Z,5.72
2022-09-15T04:38:02.659Z,6.18
2022-09-15T04:42:12.115Z,4.53
2022-09-15T04:46:20.738Z,5.45
2022-09-15T04:50:29.701Z,7.45
2022-09-15T04:54:53.844Z,6.25
2022-09-15T04:59:07.429Z,6.22
2022-09-15T05:03:14.258Z,13.77
2022-09-15T05:11:36.168Z,8.20
2022-09-15T05:25:26.122Z,6.80
2022-09-15T05:29:40.515Z,6.30
2022-09-15T05:33:53.618Z,8.63
2022-09-15T05:38:02.243Z,9.02
2022-09-15T05:42:05.489Z,7.88
2022-09-15T05:50:27.720Z,7.15
2022-09-15T05:58:50.294Z,8.00
2022-09-15T06:07:14.009Z,7.80
2022-09-15T06:11:21.375Z,9.63
2022-09-15T06:15:35.404Z,8.27
2022-09-15T06:36:54.737Z,11.00
2022-09-15T07:53:22.120Z,10.15
2022-09-15T08:47:31.856Z,9.50
2022-09-15T08:56:09.866Z,16.20
2022-09-15T09:09:37.572Z,12.35
2022-09-15T09:18:35.078Z,7.68
2022-09-15T09:23:05.624Z,8.77
2022-09-15T09:27:16.874Z,10.35
2022-09-15T09:31:24.846Z,10.77
2022-09-15T09:57:48.847Z,8.88
2022-09-15T10:15:34.039Z,10.75
2022-09-15T10:19:43.280Z,9.88
2022-09-15T10:50:18.863Z,12.18
2022-09-15T11:54:57.146Z,19.88
2022-09-15T11:59:27.908Z,21.80
2022-09-15T12:03:41.820Z,25.95
2022-09-15T12:07:57.013Z,26.27
2022-09-15T12:12:09.530Z,35.33
2022-09-15T12:16:14.032Z,35.13
2022-09-15T12:25:15.522Z,37.50
2022-09-15T12:29:30.444Z,39.60
2022-09-15T12:33:42.956Z,36.60
2022-09-15T12:37:59.205Z,41.97
2022-09-15T12:50:51.987Z,19.60
2022-09-15T12:55:01.325Z,20.55
2022-09-15T12:59:11.561Z,18.60
2022-09-15T13:07:55.960Z,19.67
2022-09-15T13:11:59.714Z,23.45
2022-09-15T13:16:06.465Z,23.58
2022-09-15T13:20:18.156Z,15.60
2022-09-15T13:24:44.999Z,16.17
2022-09-15T13:28:50.489Z,16.17
2022-09-15T13:33:25.999Z,11.18
2022-09-15T13:42:27.791Z,13.32
2022-09-15T13:47:16.402Z,17.37
2022-09-15T13:51:33.941Z,11.90
2022-09-15T13:55:46.884Z,10.27
2022-09-15T13:59:56.993Z,10.73
2022-09-15T14:04:40.077Z,11.57
2022-09-15T14:08:50.525Z,17.50
2022-09-15T14:12:58.023Z,15.70
2022-09-15T14:17:04.201Z,18.40
2022-09-15T14:21:16.942Z,17.90
2022-09-15T14:25:24.693Z,14.15
2022-09-15T14:29:28.523Z,14.75
2022-09-15T14:33:41.356Z,17.38
2022-09-15T14:37:55.800Z,15.80
2022-09-15T14:42:21.072Z,24.42
2022-09-15T14:50:42.599Z,20.30
2022-09-15T14:55:00.253Z,17.05
2022-09-15T14:59:20.511Z,16.45
2022-09-15T15:04:14.939Z,25.80
2022-09-15T15:08:47.581Z,24.27
2022-09-15T15:12:56.831Z,24.20
2022-09-15T15:17:06.374Z,19.73
2022-09-15T15:21:41.301Z,22.05
2022-09-15T15:25:54.834Z,23.95
2022-09-15T15:30:35.864Z,30.30
2022-09-15T15:34:44.596Z,29.02
2022-09-15T15:39:10.570Z,25.63
2022-09-15T15:43:32.082Z,30.42
2022-09-15T15:47:42.535Z,25.85
2022-09-15T15:51:49.116Z,30.10
2022-09-15T15:55:56.120Z,33.67
2022-09-15T16:00:00.944Z,24.63
2022-09-15T16:04:08.029Z,27.45
2022-09-15T16:08:26.780Z,26.33
2022-09-15T16:12:34.759Z,32.08
2022-09-15T16:16:45.208Z,40.63
2022-09-15T16:20:59.969Z,29.33
2022-09-15T16:25:40.802Z,42.00
2022-09-15T16:29:56.417Z,43.20
2022-09-15T16:34:01.906Z,40.17
2022-09-15T16:38:10.354Z,38.53
2022-09-15T16:42:13.863Z,40.25
2022-09-15T16:46:18.445Z,31.33
2022-09-15T16:50:50.715Z,39.30
2022-09-15T16:55:19.184Z,27.83
2022-09-15T16:59:22.397Z,38.50
2022-09-15T17:03:27.063Z,43.67
2022-09-15T17:07:31.120Z,36.77
2022-09-15T17:11:34.902Z,35.17
2022-09-15T17:15:40.111Z,34.88
2022-09-15T17:19:42.922Z,32.78
2022-09-15T17:23:51.626Z,39.75
2022-09-15T17:27:55.564Z,30.15
2022-09-15T17:31:58.400Z,39.55
2022-09-15T17:36:01.417Z,37.28
2022-09-15T17:40:06.387Z,38.85
2022-09-15T17:44:12.224Z,44.38
2022-09-15T17:48:16.779Z,39.38
2022-09-15T17:52:19.991Z,30.92
2022-09-15T17:56:23.373Z,42.03
2022-09-15T18:00:32.306Z,39.60
2022-09-15T18:04:37.075Z,37.05
2022-09-15T18:08:43.632Z,39.63
2022-09-15T18:12:52.248Z,34.35
2022-09-15T18:17:01.360Z,41.08
2022-09-15T18:21:11.881Z,34.00
2022-09-15T18:25:38.725Z,32.17
2022-09-15T18:29:44.591Z,39.28
2022-09-15T18:39:05.953Z,27.52
2022-09-15T18:43:19.910Z,27.92
2022-09-15T18:47:23.567Z,26.08
2022-09-15T18:51:51.155Z,29.48
2022-09-15T19:00:36.465Z,40.22
2022-09-15T19:04:40.728Z,27.05
2022-09-15T19:08:47.797Z,34.80
2022-09-15T19:28:19.139Z,31.17
2022-09-15T19:33:01.150Z,33.78
2022-09-15T19:37:16.443Z,36.30
2022-09-15T19:42:00.151Z,34.53
2022-09-15T19:46:14.773Z,38.88
2022-09-15T19:50:36.246Z,32.97
2022-09-15T19:55:35.987Z,31.15
2022-09-15T20:00:28.173Z,34.97
2022-09-15T20:05:10.677Z,27.17
2022-09-15T20:15:27.210Z,36.42
2022-09-15T20:19:37.681Z,42.13
2022-09-15T20:23:42.250Z,37.83
2022-09-15T20:27:55.141Z,35.45
2022-09-15T20:32:32.037Z,47.40
2022-09-15T20:36:44.261Z,40.45
2022-09-15T20:40:58.307Z,42.08
2022-09-15T20:45:28.869Z,44.30
2022-09-15T20:49:36.642Z,50.97
2022-09-15T20:53:57.858Z,40.63
2022-09-15T20:58:18.204Z,47.20
2022-09-15T21:02:22.568Z,51.05
2022-09-15T21:06:37.141Z,44.58
2022-09-15T21:10:45.097Z,38.92
2022-09-15T21:15:41.294Z,49.28
2022-09-15T21:20:09.665Z,42.70
2022-09-15T21:25:04.762Z,51.78
2022-09-15T21:29:41.928Z,54.78
2022-09-15T21:34:06.483Z,43.20
2022-09-15T21:38:49.268Z,50.20
2022-09-15T21:42:52.170Z,43.67
2022-09-15T21:46:55.235Z,32.65
2022-09-15T21:51:31.011Z,34.20
2022-09-15T21:55:40.257Z,44.58
2022-09-15T22:00:06.198Z,50.38
2022-09-15T22:04:40.013Z,36.40
2022-09-15T22:08:50.756Z,42.10
2022-09-15T22:12:53.836Z,42.33
2022-09-15T22:17:04.070Z,39.78
2022-09-15T22:26:32.661Z,38.38
2022-09-15T22:31:08.746Z,33.88
2022-09-15T22:36:12.842Z,35.55
2022-09-15T22:40:50.171Z,30.98
2022-09-15T22:45:38.968Z,28.27
2022-09-15T22:50:50.880Z,33.38
2022-09-15T22:59:21.257Z,36.47
2022-09-15T23:03:45.539Z,31.17
2022-09-15T23:07:59.726Z,24.02
2022-09-15T23:12:12.723Z,33.45
2022-09-15T23:16:53.759Z,28.35
2022-09-15T23:21:09.772Z,29.77
2022-09-15T23:25:51.455Z,18.65
2022-09-15T23:30:31.066Z,26.63
2022-09-15T23:34:49.685Z,26.40
2022-09-15T23:39:10.662Z,20.35
2022-09-15T23:43:53.240Z,22.58
2022-09-15T23:47:59.122Z,23.33
2022-09-15T23:52:24.794Z,22.33
2022-09-15T23:56:47.421Z,19.13
